Terminal Aerodrome Forecast
Issued by NWS

Home | Current Version | Previous Version | Graphics & Text | Print | Product List | Glossary On
Versions: 1 2 3 4 5 6 7 8 9 10 11 12 13 14 15 16 17 18
000
FTUS43 KIWX 282300
TAFSBN
TAF
KSBN 282338Z 0100/0124 14005KT P6SM BKN120
     FM010300 15005KT 4SM -SN SCT025 OVC050
     FM010800 18004KT P6SM OVC015=

USA.gov is the U.S. government's official web portal to all federal, state and local government web resources and services.